createdAt,value
2019-03-29T00:02:17.439Z,10.10
2019-03-29T00:05:31.587Z,9.07
2019-03-29T00:08:45.591Z,7.30
2019-03-29T00:11:59.593Z,9.37
2019-03-29T00:15:13.709Z,11.00
2019-03-29T00:18:28.106Z,11.27
2019-03-29T00:21:42.396Z,10.23
2019-03-29T00:24:56.412Z,10.00
2019-03-29T00:28:11.088Z,9.83
2019-03-29T00:31:25.475Z,11.87
2019-03-29T00:34:39.599Z,10.30
2019-03-29T00:37:55.763Z,9.10
2019-03-29T00:41:09.953Z,9.13
2019-03-29T00:44:23.972Z,12.97
2019-03-29T00:47:38.451Z,12.90
2019-03-29T00:50:52.471Z,13.60
2019-03-29T00:54:06.499Z,13.37
2019-03-29T00:57:20.499Z,13.00
2019-03-29T01:00:34.699Z,13.53
2019-03-29T01:03:48.819Z,13.23
2019-03-29T01:07:02.939Z,13.80
2019-03-29T01:10:17.226Z,12.43
2019-03-29T01:13:31.375Z,11.03
2019-03-29T01:16:45.403Z,11.23
2019-03-29T01:19:59.433Z,9.93
2019-03-29T01:23:13.471Z,15.50
2019-03-29T01:26:27.769Z,14.40
2019-03-29T01:29:42.109Z,15.37
2019-03-29T01:32:56.112Z,15.40
2019-03-29T01:36:10.240Z,15.20
2019-03-29T01:39:24.255Z,15.53
2019-03-29T01:42:38.254Z,16.10
2019-03-29T01:45:52.482Z,11.93
2019-03-29T01:49:06.498Z,11.90
2019-03-29T01:52:20.508Z,11.97
2019-03-29T01:55:34.530Z,13.87
2019-03-29T01:58:48.651Z,16.33
2019-03-29T02:02:03.196Z,16.13
2019-03-29T02:05:17.204Z,13.83
2019-03-29T02:08:35.930Z,12.80
2019-03-29T02:11:47.247Z,15.57
2019-03-29T02:15:01.362Z,12.57
2019-03-29T02:18:15.534Z,16.47
2019-03-29T02:21:29.656Z,15.90
2019-03-29T02:24:43.660Z,15.17
2019-03-29T02:27:57.920Z,15.57
2019-03-29T02:31:12.436Z,16.50
2019-03-29T02:34:26.792Z,16.07
2019-03-29T02:37:40.863Z,15.23
2019-03-29T02:40:54.890Z,15.53
2019-03-29T02:44:09.143Z,16.17
2019-03-29T02:47:23.556Z,18.67
2019-03-29T02:50:38.017Z,16.50
2019-03-29T02:53:52.048Z,16.27
2019-03-29T02:57:06.061Z,16.37
2019-03-29T03:00:20.275Z,15.73
2019-03-29T03:03:34.402Z,15.87
2019-03-29T03:06:48.410Z,16.40
2019-03-29T03:10:03.318Z,19.67
2019-03-29T03:13:17.336Z,17.70
2019-03-29T03:16:31.472Z,17.03
2019-03-29T03:19:45.783Z,17.97
2019-03-29T03:23:00.158Z,17.50
2019-03-29T03:26:14.420Z,21.47
2019-03-29T03:29:28.431Z,18.57
2019-03-29T03:32:42.497Z,18.27
2019-03-29T03:35:56.706Z,18.63
2019-03-29T03:39:10.939Z,17.37
2019-03-29T03:42:25.348Z,17.80
2019-03-29T03:45:39.595Z,16.47
2019-03-29T03:48:53.726Z,18.93
2019-03-29T03:52:07.938Z,17.83
2019-03-29T03:55:22.602Z,16.63
2019-03-29T03:58:37.809Z,17.40
2019-03-29T04:01:52.085Z,16.23
2019-03-29T04:05:06.612Z,16.43
2019-03-29T04:08:20.855Z,15.43
2019-03-29T04:11:35.272Z,15.17
2019-03-29T04:14:49.404Z,17.60
2019-03-29T04:18:03.759Z,16.63
2019-03-29T04:21:18.414Z,16.90
2019-03-29T04:24:32.423Z,18.20
2019-03-29T04:27:46.429Z,17.17
2019-03-29T04:31:00.455Z,17.07
2019-03-29T04:34:14.907Z,18.07
2019-03-29T04:37:28.904Z,17.07
2019-03-29T04:40:42.933Z,18.37
2019-03-29T04:43:56.952Z,16.70
2019-03-29T04:47:10.957Z,17.80
2019-03-29T04:50:24.978Z,16.87
2019-03-29T04:53:39.020Z,16.40
2019-03-29T04:56:53.023Z,16.90
2019-03-29T05:00:07.839Z,17.80
2019-03-29T05:03:21.865Z,16.50
2019-03-29T05:06:35.972Z,18.70
2019-03-29T05:09:49.986Z,18.77
2019-03-29T05:13:04.008Z,17.67
2019-03-29T05:16:18.006Z,19.27
2019-03-29T05:19:32.292Z,18.17
2019-03-29T05:22:47.088Z,19.87
2019-03-29T05:26:01.108Z,18.70
2019-03-29T05:29:15.155Z,17.63
2019-03-29T05:32:29.287Z,17.73
2019-03-29T05:35:43.381Z,17.60
2019-03-29T05:38:57.440Z,18.57
2019-03-29T05:42:11.762Z,18.50
2019-03-29T05:45:26.095Z,18.63
2019-03-29T05:48:40.351Z,17.17
2019-03-29T05:51:54.367Z,17.13
2019-03-29T05:55:08.607Z,20.83
2019-03-29T05:58:22.896Z,22.73
2019-03-29T06:01:37.294Z,54.07
2019-03-29T06:04:51.711Z,67.67
2019-03-29T06:08:05.720Z,33.60
2019-03-29T06:11:19.706Z,27.33
2019-03-29T06:14:34.362Z,26.40
2019-03-29T06:17:49.258Z,20.30
2019-03-29T06:21:03.905Z,22.40
2019-03-29T06:24:18.536Z,26.30
2019-03-29T06:27:32.866Z,30.80
2019-03-29T06:30:47.350Z,28.13
2019-03-29T06:34:01.850Z,27.23
2019-03-29T06:37:17.649Z,24.77
2019-03-29T06:40:31.682Z,22.43
2019-03-29T06:43:46.021Z,21.17
2019-03-29T06:47:00.332Z,27.30
2019-03-29T06:50:14.475Z,23.07
2019-03-29T06:53:28.758Z,23.10
2019-03-29T06:56:43.183Z,30.77
2019-03-29T06:59:57.522Z,30.53
2019-03-29T07:03:11.973Z,28.73
2019-03-29T07:06:26.427Z,32.70
2019-03-29T07:09:40.435Z,26.20
2019-03-29T07:12:56.601Z,24.27
2019-03-29T07:16:10.696Z,23.63
2019-03-29T07:19:25.032Z,24.23
2019-03-29T07:22:39.156Z,24.83
2019-03-29T07:25:56.234Z,28.00
2019-03-29T07:29:10.304Z,25.90
2019-03-29T07:32:24.791Z,26.10
2019-03-29T07:35:39.181Z,30.37
2019-03-29T07:38:53.688Z,34.97
2019-03-29T07:42:08.054Z,37.00
2019-03-29T07:45:22.240Z,34.23
2019-03-29T07:48:40.382Z,36.00
2019-03-29T07:51:55.281Z,60.00
2019-03-29T07:55:10.667Z,34.80
2019-03-29T07:58:26.880Z,23.03
2019-03-29T08:01:43.261Z,21.27
2019-03-29T08:04:59.675Z,18.93
2019-03-29T08:08:24.149Z,18.63
2019-03-29T08:11:46.190Z,18.00
2019-03-29T08:14:53.637Z,17.10
2019-03-29T08:18:07.978Z,17.80
2019-03-29T08:21:22.433Z,16.10
2019-03-29T08:24:36.468Z,14.93
2019-03-29T08:27:50.602Z,15.43
2019-03-29T08:31:04.727Z,12.53
2019-03-29T08:34:19.110Z,12.80
2019-03-29T08:37:33.895Z,12.20
2019-03-29T08:40:48.228Z,12.87
2019-03-29T08:44:02.452Z,13.27
2019-03-29T08:47:16.587Z,11.43
2019-03-29T08:50:32.910Z,11.67
2019-03-29T08:53:46.964Z,12.07
2019-03-29T08:57:00.969Z,11.67
2019-03-29T09:00:22.177Z,11.10
2019-03-29T09:03:36.685Z,12.63
2019-03-29T09:06:53.695Z,12.00
2019-03-29T09:10:17.833Z,10.93
2019-03-29T09:13:32.168Z,11.43
2019-03-29T09:16:46.831Z,11.20
2019-03-29T09:20:00.856Z,10.13
2019-03-29T09:26:42.155Z,9.27
2019-03-29T09:29:56.191Z,9.70
2019-03-29T09:33:10.748Z,9.50
2019-03-29T09:36:25.165Z,8.60
2019-03-29T09:39:39.239Z,9.37
2019-03-29T09:43:06.698Z,8.67
2019-03-29T09:46:09.953Z,9.13
2019-03-29T09:49:24.196Z,9.93
2019-03-29T09:52:38.497Z,8.40
2019-03-29T09:55:53.542Z,7.87
2019-03-29T09:59:08.373Z,8.40
2019-03-29T10:02:22.587Z,8.27
2019-03-29T10:05:37.125Z,8.43
2019-03-29T10:08:53.352Z,8.90
2019-03-29T10:12:07.721Z,8.10
2019-03-29T10:15:22.057Z,9.97
2019-03-29T10:18:36.390Z,9.63
2019-03-29T10:21:51.095Z,8.87
2019-03-29T10:25:18.399Z,8.97
2019-03-29T10:28:21.925Z,9.37
2019-03-29T10:31:36.462Z,8.90
2019-03-29T10:34:51.595Z,9.30
2019-03-29T10:38:05.832Z,8.80
2019-03-29T10:41:22.811Z,8.57
2019-03-29T10:44:36.107Z,9.00
2019-03-29T10:47:50.448Z,9.20
2019-03-29T10:51:08.216Z,8.13
2019-03-29T10:54:21.513Z,9.00
2019-03-29T10:57:36.868Z,9.00
2019-03-29T11:00:51.445Z,9.13
2019-03-29T11:04:05.956Z,8.80
2019-03-29T11:07:20.200Z,8.57
2019-03-29T11:10:35.787Z,9.20
2019-03-29T11:13:50.559Z,8.40
2019-03-29T11:17:05.396Z,8.30
2019-03-29T11:20:20.173Z,6.97
2019-03-29T11:23:34.532Z,7.60
2019-03-29T11:26:50.815Z,7.77
2019-03-29T11:30:09.592Z,7.90
2019-03-29T11:33:25.386Z,7.13
2019-03-29T11:36:42.975Z,6.77
2019-03-29T11:39:58.008Z,6.50
2019-03-29T11:43:26.559Z,6.77
2019-03-29T11:46:34.675Z,6.80
2019-03-29T11:49:52.775Z,6.67
2019-03-29T11:53:08.559Z,6.33
2019-03-29T11:56:22.800Z,6.37
2019-03-29T11:59:40.061Z,6.10
2019-03-29T12:02:53.056Z,5.60
2019-03-29T12:06:07.281Z,5.90
2019-03-29T12:09:21.401Z,5.00
2019-03-29T12:12:35.654Z,5.93
2019-03-29T12:15:49.764Z,5.87
2019-03-29T12:19:03.924Z,5.67
2019-03-29T12:22:18.047Z,5.70
2019-03-29T12:25:32.068Z,5.17
2019-03-29T12:28:46.400Z,5.30
2019-03-29T12:32:00.536Z,4.67
2019-03-29T12:35:14.614Z,5.10
2019-03-29T12:38:28.894Z,5.20
2019-03-29T12:41:42.957Z,4.87
2019-03-29T12:44:58.383Z,4.60
2019-03-29T12:48:12.555Z,4.67
2019-03-29T12:51:26.625Z,4.30
2019-03-29T12:54:40.703Z,4.33
2019-03-29T12:57:54.754Z,4.00
2019-03-29T13:01:09.120Z,4.43
2019-03-29T13:04:23.173Z,3.97
2019-03-29T13:07:37.246Z,4.37
2019-03-29T13:10:52.137Z,3.90
2019-03-29T13:14:10.590Z,3.87
2019-03-29T13:17:22.513Z,4.23
2019-03-29T13:20:36.798Z,4.70
2019-03-29T13:23:50.941Z,4.50
2019-03-29T13:27:04.998Z,4.20
2019-03-29T13:30:19.383Z,4.37
2019-03-29T13:33:34.121Z,4.47
2019-03-29T13:36:49.133Z,4.23
2019-03-29T13:40:05.432Z,4.13
2019-03-29T13:43:19.762Z,3.90
2019-03-29T13:46:34.107Z,4.27
2019-03-29T13:49:48.294Z,4.37
2019-03-29T13:53:02.577Z,4.00
2019-03-29T13:56:16.897Z,4.23
2019-03-29T13:59:31.901Z,4.00
2019-03-29T14:02:46.791Z,4.53
2019-03-29T14:06:01.065Z,3.80
2019-03-29T14:09:15.192Z,4.60
2019-03-29T14:12:29.321Z,4.07
2019-03-29T14:15:43.804Z,4.70
2019-03-29T14:18:58.549Z,4.00
2019-03-29T14:22:13.286Z,4.17
2019-03-29T14:25:27.848Z,4.50
2019-03-29T14:28:42.333Z,4.30
2019-03-29T14:31:56.783Z,4.57
2019-03-29T14:35:11.411Z,4.17
2019-03-29T14:38:26.064Z,4.50
2019-03-29T14:41:40.339Z,4.10
2019-03-29T14:44:54.491Z,3.67
2019-03-29T14:48:08.677Z,4.00
2019-03-29T14:51:22.784Z,4.20
2019-03-29T14:54:37.126Z,4.30
2019-03-29T14:57:51.296Z,3.57
2019-03-29T15:01:05.600Z,3.80
2019-03-29T15:04:20.050Z,4.07
2019-03-29T15:07:37.445Z,3.60
2019-03-29T15:10:52.274Z,4.27
2019-03-29T15:14:06.596Z,4.93
2019-03-29T15:17:21.660Z,4.40
2019-03-29T15:20:36.457Z,4.07
2019-03-29T15:23:51.000Z,4.60
2019-03-29T15:27:06.385Z,4.13
2019-03-29T15:30:20.860Z,4.10
2019-03-29T15:33:34.905Z,4.33
2019-03-29T15:36:49.198Z,4.20
2019-03-29T15:40:03.871Z,4.10
2019-03-29T15:43:18.548Z,4.33
2019-03-29T15:46:33.246Z,3.50
2019-03-29T15:49:55.735Z,3.47
2019-03-29T15:53:04.502Z,4.17
2019-03-29T15:56:18.822Z,4.17
2019-03-29T15:59:33.195Z,4.10
2019-03-29T16:02:47.460Z,3.50
2019-03-29T16:06:02.080Z,4.07
2019-03-29T16:09:16.584Z,3.80
2019-03-29T16:12:30.725Z,4.13
2019-03-29T16:15:44.739Z,6.87
2019-03-29T16:18:58.750Z,4.33
2019-03-29T16:22:13.415Z,4.47
2019-03-29T16:25:27.676Z,4.03
2019-03-29T16:28:41.980Z,4.67
2019-03-29T16:31:55.982Z,4.03
2019-03-29T16:35:10.494Z,4.80
2019-03-29T16:38:24.519Z,6.17
2019-03-29T16:41:38.628Z,4.27
2019-03-29T16:44:52.757Z,4.13
2019-03-29T16:48:07.152Z,6.53
2019-03-29T16:51:21.224Z,4.50
2019-03-29T16:54:35.518Z,4.40
2019-03-29T16:57:49.551Z,4.60
2019-03-29T17:01:04.010Z,4.67
2019-03-29T17:04:18.703Z,4.63
2019-03-29T17:07:33.195Z,3.90
2019-03-29T17:10:47.260Z,4.03
2019-03-29T17:14:01.673Z,4.10
2019-03-29T17:17:16.495Z,4.20
2019-03-29T17:20:30.901Z,4.80
2019-03-29T17:23:45.263Z,4.17
2019-03-29T17:26:59.581Z,3.50
2019-03-29T17:30:16.615Z,3.43
2019-03-29T17:33:31.439Z,2.80
2019-03-29T17:36:45.578Z,2.37
2019-03-29T17:39:59.604Z,2.30
2019-03-29T17:43:14.145Z,2.13
2019-03-29T17:46:28.630Z,2.67
2019-03-29T17:49:42.645Z,2.73
2019-03-29T17:52:56.651Z,2.40
2019-03-29T17:56:11.001Z,2.80
2019-03-29T17:59:25.031Z,3.90
2019-03-29T18:02:39.145Z,3.53
2019-03-29T18:05:53.400Z,3.57
2019-03-29T18:09:07.708Z,4.37
2019-03-29T18:12:21.745Z,4.00
2019-03-29T18:15:35.954Z,7.30
2019-03-29T18:18:50.067Z,92.90
2019-03-29T18:22:04.743Z,31.27
2019-03-29T18:25:19.056Z,15.47
2019-03-29T18:28:33.280Z,9.10
2019-03-29T18:31:47.666Z,8.40
2019-03-29T18:35:02.166Z,7.03
2019-03-29T18:38:16.507Z,11.03
2019-03-29T18:41:31.192Z,5.37
2019-03-29T18:44:45.500Z,7.27
2019-03-29T18:47:59.630Z,6.93
2019-03-29T18:51:13.941Z,5.80
2019-03-29T18:54:28.279Z,4.17
2019-03-29T18:57:42.472Z,7.83
2019-03-29T19:00:56.607Z,7.23
2019-03-29T19:04:10.727Z,6.07
2019-03-29T19:07:28.437Z,11.90
2019-03-29T19:10:42.539Z,9.30
2019-03-29T19:13:56.565Z,5.77
2019-03-29T19:17:10.812Z,15.90
2019-03-29T19:20:27.790Z,9.80
2019-03-29T19:23:40.852Z,6.17
2019-03-29T19:26:55.342Z,11.70
2019-03-29T19:30:10.129Z,7.00
2019-03-29T19:33:24.159Z,4.97
2019-03-29T19:36:38.430Z,8.20
2019-03-29T19:39:53.091Z,16.37
2019-03-29T19:43:07.192Z,8.10
2019-03-29T19:46:21.816Z,6.07
2019-03-29T19:49:36.435Z,6.70
2019-03-29T19:52:50.790Z,4.97
2019-03-29T19:56:05.026Z,5.87
2019-03-29T19:59:19.050Z,5.40
2019-03-29T20:02:33.224Z,12.23
2019-03-29T20:05:50.936Z,8.07
2019-03-29T20:09:07.668Z,7.80
2019-03-29T20:12:25.013Z,6.70
2019-03-29T20:15:38.406Z,6.37
2019-03-29T20:18:52.426Z,5.13
2019-03-29T20:22:06.712Z,5.50
2019-03-29T20:25:20.851Z,4.40
2019-03-29T20:28:35.545Z,4.33
2019-03-29T20:31:50.676Z,4.13
2019-03-29T20:35:05.087Z,5.43
2019-03-29T20:38:19.124Z,4.30
2019-03-29T20:41:33.491Z,4.17
2019-03-29T20:44:47.515Z,5.60
2019-03-29T20:48:01.649Z,3.90
2019-03-29T20:51:15.650Z,4.30
2019-03-29T20:54:30.016Z,5.50
2019-03-29T20:57:44.394Z,4.40
2019-03-29T21:00:58.539Z,4.53
2019-03-29T21:04:12.872Z,4.80
2019-03-29T21:07:27.267Z,5.10
2019-03-29T21:10:54.529Z,6.30
2019-03-29T21:13:57.212Z,5.53
2019-03-29T21:17:11.223Z,5.33
2019-03-29T21:20:25.462Z,5.20
2019-03-29T21:23:40.434Z,7.47
2019-03-29T21:26:55.283Z,6.90
2019-03-29T21:30:10.338Z,6.00
2019-03-29T21:33:24.703Z,5.27
2019-03-29T21:36:39.281Z,5.00
2019-03-29T21:39:53.612Z,7.50
2019-03-29T21:43:08.749Z,7.13
2019-03-29T21:46:23.261Z,6.57
2019-03-29T21:49:38.633Z,9.50
2019-03-29T21:52:52.977Z,5.70
2019-03-29T21:56:07.879Z,4.67
2019-03-29T21:59:25.061Z,6.20
2019-03-29T22:02:38.043Z,5.43
2019-03-29T22:05:52.630Z,6.80
2019-03-29T22:09:09.978Z,5.50
2019-03-29T22:12:24.776Z,5.17
2019-03-29T22:15:38.904Z,4.90
2019-03-29T22:18:52.926Z,5.10
2019-03-29T22:22:08.003Z,6.00
2019-03-29T22:25:22.016Z,6.13
2019-03-29T22:28:36.220Z,5.80
2019-03-29T22:31:50.339Z,5.90
2019-03-29T22:35:05.571Z,5.80
2019-03-29T22:38:19.690Z,5.57
2019-03-29T22:41:34.185Z,5.73
2019-03-29T22:44:48.335Z,5.67
2019-03-29T22:48:02.717Z,6.50
2019-03-29T22:51:17.192Z,6.23
2019-03-29T22:54:31.505Z,5.17
2019-03-29T22:57:45.694Z,5.57
2019-03-29T23:01:01.935Z,5.90
2019-03-29T23:04:15.967Z,6.10
2019-03-29T23:07:29.972Z,6.37
2019-03-29T23:10:44.100Z,6.73
2019-03-29T23:13:58.360Z,5.60
2019-03-29T23:17:12.395Z,6.53
2019-03-29T23:20:26.680Z,7.73
2019-03-29T23:23:41.044Z,7.90
2019-03-29T23:26:55.169Z,10.30
2019-03-29T23:30:09.706Z,10.00
2019-03-29T23:33:23.841Z,7.10
2019-03-29T23:36:38.148Z,14.53
2019-03-29T23:39:52.172Z,10.83
2019-03-29T23:43:06.296Z,10.10
2019-03-29T23:46:20.337Z,7.83
2019-03-29T23:49:34.351Z,10.90
2019-03-29T23:52:48.589Z,9.20
2019-03-29T23:56:02.831Z,9.43
2019-03-29T23:59:17.110Z,9.33
